createdAt,value
2022-09-01T00:00:14.951Z,17.88
2022-09-01T00:02:43.225Z,18.17
2022-09-01T00:05:12.784Z,18.65
2022-09-01T00:07:40.152Z,18.08
2022-09-01T00:10:09.825Z,17.67
2022-09-01T00:12:38.343Z,21.13
2022-09-01T00:15:10.392Z,19.23
2022-09-01T00:17:37.909Z,21.98
2022-09-01T00:20:07.742Z,21.00
2022-09-01T00:22:35.305Z,19.80
2022-09-01T00:25:03.005Z,19.20
2022-09-01T00:27:30.937Z,19.95
2022-09-01T00:30:00.523Z,19.13
2022-09-01T00:32:28.817Z,20.85
2022-09-01T00:34:56.373Z,20.17
2022-09-01T00:37:23.812Z,17.52
2022-09-01T00:39:51.170Z,18.85
2022-09-01T00:42:18.717Z,17.63
2022-09-01T00:44:46.309Z,17.75
2022-09-01T00:47:14.983Z,17.98
2022-09-01T00:49:48.137Z,18.70
2022-09-01T00:52:35.243Z,17.13
2022-09-01T00:55:11.221Z,17.40
2022-09-01T00:57:39.190Z,19.50
2022-09-01T01:00:20.190Z,23.98
2022-09-01T01:02:53.692Z,25.90
2022-09-01T01:05:24.630Z,21.00
2022-09-01T01:07:52.077Z,21.73
2022-09-01T01:10:22.769Z,22.30
2022-09-01T01:12:51.731Z,22.10
2022-09-01T01:15:20.478Z,21.92
2022-09-01T01:17:47.849Z,22.42
2022-09-01T01:20:35.983Z,20.98
2022-09-01T01:24:06.403Z,21.50
2022-09-01T01:26:33.987Z,21.25
2022-09-01T01:29:03.670Z,21.42
2022-09-01T01:31:32.670Z,19.05
2022-09-01T01:34:00.808Z,18.98
2022-09-01T01:36:38.729Z,18.17
2022-09-01T01:39:17.766Z,17.38
2022-09-01T01:41:49.054Z,16.40
2022-09-01T01:44:25.107Z,15.77
2022-09-01T01:46:55.546Z,16.63
2022-09-01T01:49:29.018Z,16.20
2022-09-01T01:51:58.062Z,13.45
2022-09-01T01:54:32.805Z,11.75
2022-09-01T01:57:04.497Z,10.55
2022-09-01T01:59:33.427Z,10.25
2022-09-01T02:02:05.202Z,9.98
2022-09-01T02:04:34.490Z,7.75
2022-09-01T02:07:12.992Z,6.80
2022-09-01T02:09:45.941Z,7.47
2022-09-01T02:12:19.517Z,7.78
2022-09-01T02:14:48.508Z,7.35
2022-09-01T02:17:16.970Z,9.48
2022-09-01T02:19:44.375Z,9.70
2022-09-01T02:22:11.761Z,8.23
2022-09-01T02:24:46.431Z,9.10
2022-09-01T02:27:15.713Z,10.07
2022-09-01T02:29:43.450Z,7.85
2022-09-01T02:32:11.695Z,8.35
2022-09-01T02:34:39.907Z,7.13
2022-09-01T02:37:07.284Z,10.15
2022-09-01T02:39:34.635Z,7.38
2022-09-01T02:42:02.479Z,7.05
2022-09-01T02:44:32.105Z,7.72
2022-09-01T02:47:00.865Z,8.00
2022-09-01T02:49:29.802Z,8.30
2022-09-01T02:52:01.552Z,8.63
2022-09-01T02:54:32.975Z,8.23
2022-09-01T02:57:01.479Z,9.73
2022-09-01T02:59:30.970Z,9.00
2022-09-01T03:02:00.768Z,9.95
2022-09-01T03:04:34.877Z,7.70
2022-09-01T03:07:05.380Z,8.82
2022-09-01T03:09:33.822Z,7.90
2022-09-01T03:12:02.187Z,7.55
2022-09-01T03:14:29.986Z,8.38
2022-09-01T03:17:00.640Z,7.60
2022-09-01T03:19:36.993Z,9.65
2022-09-01T03:22:04.739Z,9.60
2022-09-01T03:24:33.076Z,9.43
2022-09-01T03:27:01.082Z,9.82
2022-09-01T03:29:28.446Z,9.88
2022-09-01T03:31:55.989Z,9.32
2022-09-01T03:34:23.603Z,9.82
2022-09-01T03:36:54.401Z,8.70
2022-09-01T03:39:31.237Z,9.95
2022-09-01T03:41:58.926Z,8.63
2022-09-01T03:44:27.358Z,9.23
2022-09-01T03:46:54.756Z,10.13
2022-09-01T03:49:25.205Z,8.70
2022-09-01T03:51:53.944Z,11.68
2022-09-01T03:54:28.382Z,10.32
2022-09-01T03:56:59.839Z,8.43
2022-09-01T03:59:29.889Z,14.02
2022-09-01T04:01:59.843Z,10.43
2022-09-01T04:04:27.262Z,9.25
2022-09-01T04:06:54.693Z,9.30
2022-09-01T04:09:22.066Z,9.48
2022-09-01T04:11:51.619Z,10.25
2022-09-01T04:14:20.628Z,9.02
2022-09-01T04:17:08.528Z,8.27
2022-09-01T04:19:39.429Z,7.63
2022-09-01T04:22:14.258Z,8.52
2022-09-01T04:24:45.485Z,6.70
2022-09-01T04:27:14.638Z,6.47
2022-09-01T04:29:42.903Z,8.55
2022-09-01T04:32:15.468Z,6.40
2022-09-01T04:34:45.623Z,6.78
2022-09-01T04:37:21.220Z,5.88
2022-09-01T04:39:57.250Z,7.70
2022-09-01T04:42:32.452Z,7.05
2022-09-01T04:45:10.519Z,8.63
2022-09-01T04:47:42.217Z,7.28
2022-09-01T04:50:17.585Z,8.00
2022-09-01T04:53:07.328Z,8.60
2022-09-01T04:55:50.212Z,9.70
2022-09-01T04:58:22.129Z,8.85
2022-09-01T05:00:52.266Z,8.43
2022-09-01T05:03:24.588Z,10.07
2022-09-01T05:06:20.298Z,8.38
2022-09-01T05:08:52.590Z,8.57
2022-09-01T05:11:44.566Z,8.25
2022-09-01T05:14:24.362Z,7.57
2022-09-01T05:16:58.853Z,7.55
2022-09-01T05:19:31.321Z,7.93
2022-09-01T05:22:00.800Z,10.38
2022-09-01T05:24:30.475Z,9.05
2022-09-01T05:27:00.830Z,9.50
2022-09-01T05:29:29.641Z,9.60
2022-09-01T05:31:58.928Z,9.40
2022-09-01T05:34:27.500Z,6.70
2022-09-01T05:36:59.794Z,9.57
2022-09-01T05:39:28.835Z,7.70
2022-09-01T05:41:58.790Z,6.00
2022-09-01T05:44:26.311Z,6.70
2022-09-01T05:46:59.610Z,10.00
2022-09-01T05:49:31.525Z,6.30
2022-09-01T05:51:59.144Z,7.65
2022-09-01T05:54:29.069Z,8.07
2022-09-01T05:57:12.686Z,6.30
2022-09-01T05:59:41.398Z,6.40
2022-09-01T06:02:16.129Z,5.97
2022-09-01T06:04:44.276Z,8.55
2022-09-01T06:07:18.545Z,5.93
2022-09-01T06:09:53.925Z,8.48
2022-09-01T06:12:24.847Z,14.65
2022-09-01T06:14:56.541Z,10.55
2022-09-01T06:17:28.915Z,10.82
2022-09-01T06:20:00.178Z,10.05
2022-09-01T06:22:29.163Z,11.23
2022-09-01T06:25:02.225Z,9.98
2022-09-01T06:30:14.903Z,9.50
2022-09-01T06:32:49.615Z,8.95
2022-09-01T06:35:18.142Z,8.48
2022-09-01T06:37:48.473Z,10.60
2022-09-01T06:40:32.353Z,8.20
2022-09-01T06:43:02.208Z,6.47
2022-09-01T06:45:29.444Z,6.22
2022-09-01T06:47:57.670Z,5.55
2022-09-01T06:53:36.096Z,5.60
2022-09-01T06:56:11.014Z,7.47
2022-09-01T06:58:48.193Z,7.80
2022-09-01T07:01:19.665Z,9.30
2022-09-01T07:03:53.376Z,10.10
2022-09-01T07:09:20.278Z,14.80
2022-09-01T07:12:24.879Z,10.13
2022-09-01T07:17:42.809Z,8.55
2022-09-01T07:20:27.239Z,11.65
2022-09-01T07:23:06.547Z,9.52
2022-09-01T07:26:01.646Z,11.13
2022-09-01T07:28:37.858Z,10.93
2022-09-01T07:43:12.940Z,9.18
2022-09-01T07:46:00.478Z,8.43
2022-09-01T07:49:01.285Z,6.80
2022-09-01T07:51:38.294Z,7.75
2022-09-01T07:54:07.528Z,7.78
2022-09-01T07:56:39.710Z,6.95
2022-09-01T07:59:12.717Z,4.30
2022-09-01T08:01:51.116Z,5.43
2022-09-01T08:04:22.973Z,8.60
2022-09-01T08:06:51.205Z,5.25
2022-09-01T08:09:25.334Z,4.95
2022-09-01T08:12:07.768Z,6.93
2022-09-01T08:14:39.873Z,5.05
2022-09-01T08:19:56.807Z,4.95
2022-09-01T08:22:44.201Z,5.63
2022-09-01T08:25:36.384Z,6.18
2022-09-01T08:28:05.717Z,5.75
2022-09-01T08:30:35.169Z,5.57
2022-09-01T08:33:11.058Z,7.57
2022-09-01T08:35:47.066Z,8.57
2022-09-01T08:38:15.950Z,5.70
2022-09-01T08:40:56.340Z,8.13
2022-09-01T08:44:28.204Z,7.22
2022-09-01T08:47:04.950Z,6.07
2022-09-01T08:49:42.866Z,8.63
2022-09-01T08:52:40.202Z,7.65
2022-09-01T08:55:27.327Z,9.27
2022-09-01T08:58:00.492Z,6.10
2022-09-01T09:00:39.470Z,10.55
2022-09-01T09:03:51.878Z,9.07
2022-09-01T09:06:43.569Z,14.98
2022-09-01T09:09:11.297Z,12.88
2022-09-01T09:12:09.867Z,13.52
2022-09-01T09:15:23.471Z,12.48
2022-09-01T09:18:39.286Z,8.68
2022-09-01T09:21:37.036Z,9.13
2022-09-01T09:24:47.341Z,9.05
2022-09-01T09:27:32.299Z,9.45
2022-09-01T09:30:22.137Z,7.53
2022-09-01T09:33:44.205Z,10.48
2022-09-01T09:35:57.401Z,8.15
2022-09-01T09:38:29.483Z,11.10
2022-09-01T09:41:25.642Z,9.45
2022-09-01T09:44:29.428Z,8.98
2022-09-01T09:47:00.693Z,10.20
2022-09-01T09:49:37.326Z,11.48
2022-09-01T09:52:08.756Z,12.50
2022-09-01T09:55:01.297Z,13.38
2022-09-01T09:57:32.827Z,13.98
2022-09-01T10:00:22.149Z,12.32
2022-09-01T10:03:07.824Z,13.90
2022-09-01T10:05:51.725Z,15.88
2022-09-01T10:08:29.509Z,12.82
2022-09-01T10:10:58.604Z,11.27
2022-09-01T10:13:32.511Z,10.43
2022-09-01T10:16:20.148Z,10.65
2022-09-01T10:18:51.869Z,10.57
2022-09-01T10:21:32.926Z,8.38
2022-09-01T10:24:17.648Z,12.57
2022-09-01T10:26:54.864Z,8.50
2022-09-01T10:29:47.453Z,9.82
2022-09-01T10:32:38.246Z,8.75
2022-09-01T10:35:39.738Z,8.25
2022-09-01T10:38:15.890Z,10.25
2022-09-01T10:41:07.189Z,10.98
2022-09-01T10:43:48.871Z,15.38
2022-09-01T10:46:24.811Z,10.43
2022-09-01T10:49:02.913Z,9.60
2022-09-01T10:51:36.388Z,8.73
2022-09-01T10:54:06.966Z,12.23
2022-09-01T10:56:53.444Z,9.48
2022-09-01T10:59:40.165Z,9.38
2022-09-01T11:02:28.045Z,10.27
2022-09-01T11:04:55.945Z,8.75
2022-09-01T11:07:50.065Z,10.20
2022-09-01T11:10:39.626Z,9.23
2022-09-01T11:13:10.351Z,9.20
2022-09-01T11:15:42.812Z,8.43
2022-09-01T11:18:29.353Z,8.13
2022-09-01T11:21:26.736Z,8.43
2022-09-01T11:24:38.525Z,8.35
2022-09-01T11:27:12.973Z,7.28
2022-09-01T11:29:58.985Z,10.85
2022-09-01T11:32:37.787Z,9.77
2022-09-01T11:35:25.837Z,11.77
2022-09-01T11:38:02.884Z,11.15
2022-09-01T11:40:35.596Z,8.88
2022-09-01T11:43:16.695Z,8.75
2022-09-01T11:46:28.369Z,8.80
2022-09-01T11:48:58.802Z,7.15
2022-09-01T11:51:26.230Z,11.23
2022-09-01T11:54:00.585Z,9.00
2022-09-01T11:56:29.095Z,8.00
2022-09-01T11:58:56.655Z,10.27
2022-09-01T12:01:40.053Z,10.30
2022-09-01T12:04:31.886Z,11.52
2022-09-01T12:07:10.887Z,8.30
2022-09-01T12:09:46.196Z,10.10
2022-09-01T12:15:26.717Z,6.85
2022-09-01T12:18:19.275Z,8.68
2022-09-01T12:20:51.191Z,5.78
2022-09-01T12:23:43.075Z,5.97
2022-09-01T12:26:27.536Z,4.20
2022-09-01T12:28:55.501Z,3.85
2022-09-01T12:31:26.396Z,5.22
2022-09-01T12:33:56.467Z,3.72
2022-09-01T12:36:36.003Z,4.30
2022-09-01T12:39:25.665Z,3.35
2022-09-01T12:42:40.723Z,4.47
2022-09-01T12:45:11.018Z,4.93
2022-09-01T12:47:48.076Z,5.50
2022-09-01T12:50:16.503Z,3.95
2022-09-01T12:52:59.137Z,5.85
2022-09-01T12:55:49.008Z,4.60
2022-09-01T12:58:27.587Z,6.25
2022-09-01T13:01:16.016Z,4.85
2022-09-01T13:04:31.049Z,4.63
2022-09-01T13:07:06.144Z,4.75
2022-09-01T13:09:35.216Z,6.30
2022-09-01T13:12:21.534Z,4.97
2022-09-01T13:14:49.531Z,3.63
2022-09-01T13:17:16.969Z,5.15
2022-09-01T13:19:44.284Z,5.00
2022-09-01T13:22:11.695Z,3.55
2022-09-01T13:24:40.051Z,4.15
2022-09-01T13:27:23.627Z,4.63
2022-09-01T13:29:51.954Z,3.80
2022-09-01T13:32:24.969Z,3.88
2022-09-01T13:34:53.830Z,8.50
2022-09-01T13:37:22.779Z,3.47
2022-09-01T13:39:50.671Z,4.22
2022-09-01T13:42:18.710Z,3.47
2022-09-01T13:44:48.573Z,5.82
2022-09-01T13:47:33.781Z,8.77
2022-09-01T13:50:10.809Z,6.35
2022-09-01T13:52:43.242Z,5.35
2022-09-01T13:55:17.434Z,4.35
2022-09-01T13:57:44.885Z,3.08
2022-09-01T14:00:18.368Z,5.80
2022-09-01T14:02:50.044Z,3.85
2022-09-01T14:05:32.426Z,3.58
2022-09-01T14:08:01.504Z,3.58
2022-09-01T14:10:35.016Z,2.88
2022-09-01T14:13:02.429Z,4.10
2022-09-01T14:15:29.703Z,3.03
2022-09-01T14:17:58.341Z,2.95
2022-09-01T14:20:37.049Z,3.90
2022-09-01T14:23:08.689Z,3.08
2022-09-01T14:25:43.213Z,3.88
2022-09-01T14:30:40.224Z,3.50
2022-09-01T14:33:09.379Z,3.20
2022-09-01T14:35:41.309Z,1.90
2022-09-01T14:38:09.553Z,2.67
2022-09-01T14:40:39.011Z,4.50
2022-09-01T14:43:10.693Z,5.22
2022-09-01T14:45:38.051Z,2.13
2022-09-01T14:48:06.201Z,4.07
2022-09-01T14:50:34.125Z,5.20
2022-09-01T14:53:02.897Z,2.78
2022-09-01T14:55:31.032Z,4.15
2022-09-01T14:58:00.297Z,3.90
2022-09-01T15:00:30.110Z,4.30
2022-09-01T15:02:58.418Z,2.83
2022-09-01T15:05:25.723Z,2.80
2022-09-01T15:07:54.179Z,3.60
2022-09-01T15:10:26.082Z,2.60
2022-09-01T15:13:01.573Z,3.15
2022-09-01T15:15:30.559Z,1.98
2022-09-01T15:18:00.299Z,1.75
2022-09-01T15:20:48.672Z,1.92
2022-09-01T15:23:25.110Z,3.72
2022-09-01T15:25:57.875Z,3.80
2022-09-01T15:28:26.671Z,3.63
2022-09-01T15:30:56.912Z,4.30
2022-09-01T15:33:24.205Z,5.43
2022-09-01T15:35:51.483Z,2.92
2022-09-01T15:38:21.291Z,5.22
2022-09-01T15:40:55.448Z,4.10
2022-09-01T15:43:28.077Z,2.85
2022-09-01T15:45:58.572Z,4.63
2022-09-01T15:48:29.334Z,5.30
2022-09-01T15:51:30.870Z,4.18
2022-09-01T15:54:05.417Z,5.38
2022-09-01T15:56:32.872Z,3.53
2022-09-01T15:59:02.301Z,3.35
2022-09-01T16:01:36.275Z,4.20
2022-09-01T16:04:07.232Z,6.45
2022-09-01T16:06:35.609Z,3.25
2022-09-01T16:09:03.017Z,3.33
2022-09-01T16:11:30.458Z,3.63
2022-09-01T16:13:58.208Z,2.75
2022-09-01T16:17:41.891Z,3.15
2022-09-01T16:20:21.209Z,2.88
2022-09-01T16:23:23.085Z,3.25
2022-09-01T16:25:51.206Z,3.58
2022-09-01T16:28:37.024Z,3.53
2022-09-01T16:31:21.276Z,3.75
2022-09-01T16:33:56.871Z,2.38
2022-09-01T16:36:34.706Z,3.50
2022-09-01T16:39:47.154Z,3.58
2022-09-01T16:43:07.571Z,3.60
2022-09-01T16:45:46.709Z,3.58
2022-09-01T16:48:16.675Z,2.85
2022-09-01T16:51:31.771Z,3.22
2022-09-01T16:54:39.472Z,3.40
2022-09-01T16:57:54.132Z,2.13
2022-09-01T17:00:46.665Z,1.85
2022-09-01T17:03:49.443Z,4.85
2022-09-01T17:06:33.002Z,2.88
2022-09-01T17:09:44.332Z,3.10
2022-09-01T17:12:42.534Z,1.30
2022-09-01T17:15:28.804Z,2.75
2022-09-01T17:18:34.494Z,3.13
2022-09-01T17:21:23.134Z,4.13
2022-09-01T17:24:21.571Z,4.63
2022-09-01T17:26:52.469Z,4.07
2022-09-01T17:29:42.934Z,3.65
2022-09-01T17:32:55.975Z,3.47
2022-09-01T17:35:41.307Z,6.72
2022-09-01T17:38:36.201Z,3.50
2022-09-01T17:41:23.197Z,3.77
2022-09-01T17:44:15.756Z,5.50
2022-09-01T17:46:53.936Z,6.53
2022-09-01T17:49:55.587Z,5.78
2022-09-01T17:53:03.089Z,2.40
2022-09-01T17:55:46.085Z,4.20
2022-09-01T17:58:52.648Z,4.45
2022-09-01T18:01:43.164Z,6.85
2022-09-01T18:04:28.640Z,5.13
2022-09-01T18:07:45.060Z,5.50
2022-09-01T18:10:41.567Z,5.72
2022-09-01T18:14:07.282Z,6.57
2022-09-01T18:17:01.065Z,6.13
2022-09-01T18:19:38.644Z,4.97
2022-09-01T18:22:16.683Z,2.90
2022-09-01T18:25:37.129Z,7.60
2022-09-01T18:28:04.611Z,4.95
2022-09-01T18:30:59.487Z,6.63
2022-09-01T18:34:00.218Z,4.05
2022-09-01T18:37:01.005Z,2.03
2022-09-01T18:39:51.900Z,3.35
2022-09-01T18:43:01.673Z,6.10
2022-09-01T18:45:54.378Z,1.95
2022-09-01T18:49:27.746Z,8.93
2022-09-01T18:52:23.153Z,3.38
2022-09-01T18:55:25.112Z,2.67
2022-09-01T18:58:01.800Z,6.68
2022-09-01T19:01:09.457Z,6.85
2022-09-01T19:03:48.533Z,5.18
2022-09-01T19:06:37.922Z,5.97
2022-09-01T19:09:39.500Z,5.68
2022-09-01T19:12:36.356Z,4.90
2022-09-01T19:15:20.539Z,6.65
2022-09-01T19:18:05.365Z,7.70
2022-09-01T19:20:59.033Z,4.53
2022-09-01T19:24:03.322Z,7.50
2022-09-01T19:26:43.073Z,9.07
2022-09-01T19:29:27.597Z,9.75
2022-09-01T19:32:02.360Z,6.05
2022-09-01T19:35:12.481Z,5.00
2022-09-01T19:37:42.609Z,6.15
2022-09-01T19:40:11.572Z,9.63
2022-09-01T19:43:17.688Z,6.03
2022-09-01T19:46:22.552Z,9.48
2022-09-01T19:49:23.180Z,6.38
2022-09-01T19:52:26.004Z,8.52
2022-09-01T19:55:19.878Z,7.03
2022-09-01T19:58:10.827Z,6.53
2022-09-01T20:00:58.725Z,6.63
2022-09-01T20:03:59.525Z,9.55
2022-09-01T20:06:37.910Z,5.25
2022-09-01T20:10:15.736Z,5.13
2022-09-01T20:16:31.485Z,8.27
2022-09-01T20:19:38.385Z,7.20
2022-09-01T20:22:41.128Z,5.72
2022-09-01T20:25:17.982Z,6.28
2022-09-01T20:28:01.992Z,4.18
2022-09-01T20:30:41.701Z,7.22
2022-09-01T20:33:40.525Z,6.35
2022-09-01T20:36:29.691Z,10.43
2022-09-01T20:39:59.404Z,2.90
2022-09-01T20:42:58.901Z,7.05
2022-09-01T20:45:29.515Z,3.95
2022-09-01T20:48:03.326Z,4.90
2022-09-01T20:50:43.495Z,5.25
2022-09-01T20:53:33.896Z,5.53
2022-09-01T20:56:42.220Z,4.07
2022-09-01T20:59:44.516Z,4.70
2022-09-01T21:02:26.872Z,4.28
2022-09-01T21:05:53.217Z,7.57
2022-09-01T21:09:11.924Z,6.18
2022-09-01T21:11:57.722Z,4.72
2022-09-01T21:17:46.117Z,4.15
2022-09-01T21:20:52.346Z,5.55
2022-09-01T21:23:22.687Z,5.63
2022-09-01T21:25:50.296Z,6.97
2022-09-01T21:28:21.410Z,5.68
2022-09-01T21:30:54.045Z,7.82
2022-09-01T21:33:23.479Z,6.50
2022-09-01T21:35:52.800Z,5.93
2022-09-01T21:38:20.438Z,5.20
2022-09-01T21:40:49.616Z,6.25
2022-09-01T21:43:21.799Z,6.30
2022-09-01T21:45:50.011Z,5.13
2022-09-01T21:48:17.901Z,7.00
2022-09-01T21:50:46.889Z,5.03
2022-09-01T21:53:14.869Z,5.60
2022-09-01T21:55:42.803Z,6.75
2022-09-01T21:58:10.452Z,3.78
2022-09-01T22:00:40.434Z,4.20
2022-09-01T22:03:09.264Z,3.90
2022-09-01T22:05:44.808Z,5.30
2022-09-01T22:08:16.485Z,5.40
2022-09-01T22:10:49.453Z,4.57
2022-09-01T22:13:19.445Z,6.60
2022-09-01T22:15:51.785Z,6.68
2022-09-01T22:18:21.369Z,4.85
2022-09-01T22:20:49.093Z,8.75
2022-09-01T22:23:19.641Z,6.93
2022-09-01T22:25:47.835Z,5.25
2022-09-01T22:28:15.416Z,7.15
2022-09-01T22:30:53.545Z,5.97
2022-09-01T22:33:23.292Z,4.00
2022-09-01T22:35:56.432Z,7.15
2022-09-01T22:38:24.541Z,2.90
2022-09-01T22:40:59.529Z,5.53
2022-09-01T22:43:29.232Z,9.32
2022-09-01T22:45:58.190Z,3.47
2022-09-01T22:48:27.198Z,5.38
2022-09-01T22:50:54.755Z,4.25
2022-09-01T22:53:23.493Z,4.75
2022-09-01T22:55:52.799Z,4.03
2022-09-01T22:58:24.049Z,5.47
2022-09-01T23:00:58.379Z,5.15
2022-09-01T23:03:26.021Z,5.38
2022-09-01T23:06:10.334Z,4.45
2022-09-01T23:08:41.867Z,5.72
2022-09-01T23:11:10.398Z,4.30
2022-09-01T23:13:38.523Z,2.75
2022-09-01T23:16:12.751Z,6.15
2022-09-01T23:18:46.212Z,6.45
2022-09-01T23:21:24.308Z,5.22
2022-09-01T23:23:58.703Z,7.13
2022-09-01T23:26:29.928Z,8.32
2022-09-01T23:28:59.726Z,3.78
2022-09-01T23:31:34.682Z,4.05
2022-09-01T23:34:03.902Z,6.32
2022-09-01T23:36:31.270Z,5.22
2022-09-01T23:38:58.791Z,3.08
2022-09-01T23:41:32.063Z,6.07
2022-09-01T23:44:03.493Z,5.10
2022-09-01T23:46:40.024Z,3.42
2022-09-01T23:49:10.076Z,4.95
2022-09-01T23:51:38.865Z,4.80
2022-09-01T23:54:10.730Z,3.50
2022-09-01T23:56:39.476Z,4.38
2022-09-01T23:59:08.826Z,5.50
